createdAt,value
2023-01-22T00:01:43.934Z,1.50
2023-01-22T00:06:46.292Z,1.60
2023-01-22T00:11:51.084Z,1.50
2023-01-22T00:16:53.239Z,1.40
2023-01-22T00:21:55.357Z,1.30
2023-01-22T00:26:58.895Z,1.50
2023-01-22T00:32:01.380Z,1.50
2023-01-22T00:37:03.762Z,1.50
2023-01-22T00:42:07.395Z,1.60
2023-01-22T00:47:09.698Z,1.50
2023-01-22T00:52:12.208Z,1.60
2023-01-22T00:57:15.844Z,1.70
2023-01-22T01:02:18.805Z,1.70
2023-01-22T01:07:21.029Z,1.80
2023-01-22T01:12:24.667Z,1.50
2023-01-22T01:17:26.868Z,1.40
2023-01-22T01:22:29.037Z,1.50
2023-01-22T01:27:32.824Z,1.50
2023-01-22T01:32:35.079Z,1.50
2023-01-22T01:37:37.211Z,1.60
2023-01-22T01:42:43.456Z,1.70
2023-01-22T01:47:48.414Z,1.30
2023-01-22T01:52:51.143Z,1.50
2023-01-22T01:58:00.435Z,1.50
2023-01-22T02:03:03.743Z,1.70
2023-01-22T02:08:08.163Z,1.90
2023-01-22T02:13:19.138Z,1.60
2023-01-22T02:18:22.700Z,1.50
2023-01-22T02:23:27.425Z,1.60
2023-01-22T02:28:29.642Z,1.40
2023-01-22T02:33:32.584Z,1.30
2023-01-22T02:38:36.077Z,1.40
2023-01-22T02:43:38.454Z,1.60
2023-01-22T02:48:41.100Z,1.80
2023-01-22T02:53:45.114Z,1.70
2023-01-22T02:58:47.336Z,1.60
2023-01-22T03:03:52.004Z,1.80
2023-01-22T03:08:59.531Z,1.90
2023-01-22T03:14:02.045Z,2.00
2023-01-22T03:19:04.304Z,1.70
2023-01-22T03:24:08.135Z,1.60
2023-01-22T03:29:10.394Z,1.60
2023-01-22T03:34:15.121Z,2.00
2023-01-22T03:39:18.646Z,1.70
2023-01-22T03:44:21.329Z,2.00
2023-01-22T03:49:24.457Z,1.80
2023-01-22T03:54:29.968Z,1.70
2023-01-22T03:59:37.243Z,1.80
2023-01-22T04:04:39.539Z,1.80
2023-01-22T04:09:43.186Z,2.10
2023-01-22T04:14:45.486Z,2.10
2023-01-22T04:19:47.716Z,2.00
2023-01-22T04:25:15.980Z,1.70
2023-01-22T04:30:20.061Z,1.80
2023-01-22T04:35:28.453Z,2.00
2023-01-22T04:40:34.717Z,1.80
2023-01-22T04:45:37.075Z,2.00
2023-01-22T04:50:39.535Z,1.90
2023-01-22T04:55:43.243Z,2.00
2023-01-22T05:00:46.518Z,1.80
2023-01-22T05:05:49.085Z,1.80
2023-01-22T05:10:53.968Z,1.70
2023-01-22T05:16:01.760Z,1.80
2023-01-22T05:21:04.307Z,1.80
2023-01-22T05:26:09.813Z,1.80
2023-01-22T05:31:16.728Z,1.90
2023-01-22T05:36:39.602Z,2.10
2023-01-22T05:41:50.528Z,2.30
2023-01-22T05:46:53.694Z,2.30
2023-01-22T05:52:19.713Z,2.10
2023-01-22T05:57:24.287Z,1.90
2023-01-22T06:02:26.868Z,2.00
2023-01-22T06:07:30.805Z,2.10
2023-01-22T06:12:34.465Z,2.30
2023-01-22T06:17:36.796Z,2.40
2023-01-22T06:22:39.196Z,2.20
2023-01-22T06:27:43.535Z,2.30
2023-01-22T06:32:45.869Z,2.30
2023-01-22T06:37:49.427Z,2.20
2023-01-22T06:42:53.917Z,2.30
2023-01-22T06:47:56.189Z,2.40
2023-01-22T06:53:00.488Z,2.40
2023-01-22T06:58:04.362Z,2.00
2023-01-22T07:03:08.153Z,2.10
2023-01-22T07:08:14.977Z,2.00
2023-01-22T07:13:18.776Z,2.10
2023-01-22T07:18:21.638Z,1.90
2023-01-22T07:23:23.984Z,1.80
2023-01-22T07:28:27.659Z,1.90
2023-01-22T07:33:29.804Z,1.80
2023-01-22T07:38:31.961Z,1.90
2023-01-22T07:43:35.445Z,2.20
2023-01-22T07:48:37.616Z,2.20
2023-01-22T07:53:39.746Z,1.90
2023-01-22T07:58:43.269Z,2.00
2023-01-22T08:03:45.884Z,2.20
2023-01-22T08:08:48.444Z,2.30
2023-01-22T08:13:52.110Z,2.20
2023-01-22T08:18:54.520Z,2.30
2023-01-22T08:23:56.672Z,2.30
2023-01-22T08:29:01.960Z,2.00
2023-01-22T08:34:06.940Z,2.00
2023-01-22T08:39:09.338Z,1.90
2023-01-22T08:44:13.994Z,2.00
2023-01-22T08:49:16.396Z,2.10
2023-01-22T08:54:18.740Z,2.00
2023-01-22T08:59:22.258Z,1.90
2023-01-22T09:04:24.477Z,2.10
2023-01-22T09:09:26.669Z,2.10
2023-01-22T09:14:30.295Z,1.90
2023-01-22T09:19:32.494Z,1.90
2023-01-22T09:24:34.710Z,2.40
2023-01-22T09:29:38.328Z,2.40
2023-01-22T09:34:40.458Z,2.10
2023-01-22T09:39:42.690Z,1.90
2023-01-22T09:44:54.709Z,2.00
2023-01-22T09:50:02.378Z,2.00
2023-01-22T09:55:12.426Z,1.80
2023-01-22T10:00:23.456Z,1.70
2023-01-22T10:05:35.262Z,2.00
2023-01-22T10:10:37.760Z,1.80
2023-01-22T10:15:42.195Z,2.00
2023-01-22T10:20:44.722Z,2.00
2023-01-22T10:25:47.853Z,2.20
2023-01-22T10:30:51.790Z,2.50
2023-01-22T10:35:56.279Z,2.60
2023-01-22T10:41:02.308Z,2.50
2023-01-22T10:46:17.450Z,2.50
2023-01-22T10:51:23.866Z,2.80
2023-01-22T10:56:31.469Z,2.60
2023-01-22T11:01:38.530Z,2.70
2023-01-22T11:06:46.532Z,2.80
2023-01-22T11:11:58.951Z,2.90
2023-01-22T11:17:13.732Z,2.50
2023-01-22T11:22:27.567Z,2.30
2023-01-22T11:27:59.678Z,2.10
2023-01-22T11:33:15.571Z,2.40
2023-01-22T11:38:27.505Z,2.30
2023-01-22T11:43:58.681Z,2.20
2023-01-22T11:49:19.948Z,2.50
2023-01-22T11:54:49.409Z,2.60
2023-01-22T12:00:44.833Z,2.40
2023-01-22T12:06:04.936Z,2.50
2023-01-22T12:11:45.622Z,2.50
2023-01-22T12:17:00.756Z,2.70
2023-01-22T12:22:19.126Z,2.90
2023-01-22T12:27:29.004Z,2.80
2023-01-22T12:32:36.521Z,3.00
2023-01-22T12:37:43.878Z,3.00
2023-01-22T12:42:56.371Z,2.90
2023-01-22T12:48:11.159Z,3.10
2023-01-22T12:53:25.073Z,3.00
2023-01-22T12:58:31.578Z,2.80
2023-01-22T13:03:34.565Z,2.80
2023-01-22T13:08:42.156Z,2.80
2023-01-22T13:13:51.874Z,2.80
2023-01-22T13:18:59.120Z,2.80
2023-01-22T13:24:13.636Z,2.90
2023-01-22T13:29:21.967Z,2.60
2023-01-22T13:34:25.397Z,2.60
2023-01-22T13:39:31.863Z,2.90
2023-01-22T13:44:38.988Z,3.20
2023-01-22T13:49:43.512Z,3.20
2023-01-22T13:54:57.293Z,3.10
2023-01-22T14:00:02.092Z,3.00
2023-01-22T14:05:16.440Z,2.80
2023-01-22T14:10:24.502Z,2.80
2023-01-22T14:15:27.147Z,2.70
2023-01-22T14:20:29.350Z,2.90
2023-01-22T14:25:33.138Z,2.70
2023-01-22T14:30:35.875Z,2.70
2023-01-22T14:35:38.177Z,2.60
2023-01-22T14:40:42.367Z,2.70
2023-01-22T14:45:47.556Z,2.60
2023-01-22T14:50:50.843Z,2.70
2023-01-22T14:55:54.632Z,2.70
2023-01-22T15:00:56.958Z,2.50
2023-01-22T15:05:59.374Z,2.50
2023-01-22T15:11:03.785Z,2.40
2023-01-22T15:16:09.951Z,2.40
2023-01-22T15:21:12.296Z,2.50
2023-01-22T15:26:27.983Z,2.50
2023-01-22T15:31:30.752Z,2.50
2023-01-22T15:36:35.959Z,2.60
2023-01-22T15:41:40.837Z,2.40
2023-01-22T15:46:43.211Z,2.50
2023-01-22T15:51:46.100Z,2.80
2023-01-22T15:56:49.795Z,2.50
2023-01-22T16:01:52.292Z,2.50
2023-01-22T16:06:54.655Z,2.50
2023-01-22T16:11:58.295Z,2.40
2023-01-22T16:17:00.683Z,2.40
2023-01-22T16:22:03.055Z,2.40
2023-01-22T16:27:06.731Z,2.50
2023-01-22T16:32:08.928Z,2.40
2023-01-22T16:37:11.938Z,2.40
2023-01-22T16:42:15.540Z,2.30
2023-01-22T16:47:17.834Z,2.30
2023-01-22T16:52:22.909Z,2.40
2023-01-22T16:57:26.993Z,2.50
2023-01-22T17:02:29.346Z,2.20
2023-01-22T17:07:34.368Z,2.40
2023-01-22T17:12:38.212Z,2.30
2023-01-22T17:17:40.604Z,2.30
2023-01-22T17:22:43.092Z,2.20
2023-01-22T17:27:46.745Z,2.30
2023-01-22T17:32:50.504Z,2.30
2023-01-22T17:37:52.723Z,2.20
2023-01-22T17:42:56.381Z,2.20
2023-01-22T17:47:58.598Z,2.10
2023-01-22T17:53:00.919Z,2.30
2023-01-22T17:58:05.394Z,2.60
2023-01-22T18:03:07.942Z,2.40
2023-01-22T18:08:10.750Z,2.70
2023-01-22T18:13:14.419Z,2.70
2023-01-22T18:18:18.150Z,2.70
2023-01-22T18:23:20.922Z,2.60
2023-01-22T18:28:26.649Z,2.50
2023-01-22T18:33:29.177Z,2.60
2023-01-22T18:38:31.471Z,2.50
2023-01-22T18:43:35.427Z,2.40
2023-01-22T18:48:39.114Z,2.60
2023-01-22T18:53:42.315Z,2.40
2023-01-22T18:58:46.014Z,2.60
2023-01-22T19:03:51.919Z,2.60
2023-01-22T19:08:57.337Z,2.70
2023-01-22T19:14:02.679Z,2.80
2023-01-22T19:19:08.002Z,2.70
2023-01-22T19:24:10.414Z,2.70
2023-01-22T19:29:17.049Z,2.50
2023-01-22T19:34:22.142Z,2.40
2023-01-22T19:39:26.194Z,2.80
2023-01-22T19:44:31.357Z,2.70
2023-01-22T19:49:33.571Z,2.70
2023-01-22T19:54:36.316Z,2.70
2023-01-22T19:59:39.948Z,2.30
2023-01-22T20:04:42.259Z,2.20
2023-01-22T20:09:44.850Z,2.30
2023-01-22T20:14:48.436Z,2.40
2023-01-22T20:19:52.008Z,2.70
2023-01-22T20:24:54.378Z,2.40
2023-01-22T20:29:58.157Z,2.30
2023-01-22T20:35:00.586Z,2.30
2023-01-22T20:40:02.781Z,2.40
2023-01-22T20:45:07.926Z,2.40
2023-01-22T20:50:11.705Z,2.40
2023-01-22T20:55:14.123Z,2.20
2023-01-22T21:00:19.447Z,2.40
2023-01-22T21:05:21.688Z,2.30
2023-01-22T21:10:23.872Z,2.30
2023-01-22T21:15:30.266Z,2.20
2023-01-22T21:20:32.722Z,2.00
2023-01-22T21:25:35.519Z,2.20
2023-01-22T21:30:39.076Z,2.30
2023-01-22T21:35:48.008Z,2.40
2023-01-22T21:40:50.264Z,2.40
2023-01-22T21:45:54.013Z,2.50
2023-01-22T21:50:56.453Z,2.40
2023-01-22T21:55:58.672Z,2.50
2023-01-22T22:01:06.623Z,2.60
2023-01-22T22:06:09.887Z,2.50
2023-01-22T22:11:13.899Z,2.60
2023-01-22T22:16:17.740Z,2.70
2023-01-22T22:21:19.997Z,2.70
2023-01-22T22:26:22.205Z,2.60
2023-01-22T22:31:25.995Z,2.70
2023-01-22T22:36:30.300Z,2.50
2023-01-22T22:41:35.030Z,2.30
2023-01-22T22:46:39.819Z,2.40
2023-01-22T22:51:43.579Z,2.30
2023-01-22T22:56:47.631Z,2.50
2023-01-22T23:01:51.605Z,2.40
2023-01-22T23:06:53.827Z,2.10
2023-01-22T23:11:56.004Z,2.10
2023-01-22T23:16:59.666Z,2.20
2023-01-22T23:22:02.027Z,2.50
2023-01-22T23:27:04.544Z,2.60
2023-01-22T23:32:08.234Z,2.40
2023-01-22T23:37:10.482Z,2.60
2023-01-22T23:42:12.702Z,2.70
2023-01-22T23:47:16.385Z,2.60
2023-01-22T23:52:18.647Z,2.60
2023-01-22T23:57:20.897Z,2.10
